Time;durP1;ratioP1;P1;durP2;ratioP2;P2;SDS_P1;SDS_P2;PMS_P1;PMS_P2;Temp;Humidity;BMP_temperature;BMP_pressure;BME280_temperature;BME280_humidity;BME280_pressure;Samples;Min_cycle;Max_cycle;Signal;HPM_P1;HPM_P2
2022/08/23 00:01:32;;;;;;;6.43;2.70;;;16.70;99.90;;;;;;5051402;28;20510;-75
2022/08/23 00:04:04;;;;;;;7.50;3.47;;;16.70;99.90;;;;;;5050110;28;20602;-75
2022/08/23 00:06:31;;;;;;;6.82;3.05;;;16.60;99.90;;;;;;5051271;28;20052;-76
2022/08/23 00:08:57;;;;;;;7.22;3.72;;;16.60;99.90;;;;;;5051403;28;20049;-74
2022/08/23 00:11:28;;;;;;;6.72;3.80;;;16.60;99.90;;;;;;5033512;28;20092;-72
2022/08/23 00:13:54;;;;;;;6.38;3.00;;;16.60;99.90;;;;;;5033166;28;20056;-73
2022/08/23 00:16:20;;;;;;;6.32;2.85;;;16.50;99.90;;;;;;5033055;28;20538;-74
2022/08/23 00:18:46;;;;;;;12.00;3.13;;;16.50;99.90;;;;;;5051930;28;20081;-71
2022/08/23 00:21:12;;;;;;;9.63;2.45;;;16.40;99.90;;;;;;5062614;28;20443;-75
2022/08/23 00:23:38;;;;;;;10.90;3.00;;;16.40;99.90;;;;;;5052801;28;20052;-76
2022/08/23 00:26:04;;;;;;;6.32;2.50;;;16.40;99.90;;;;;;5071054;28;20055;-77
2022/08/23 00:28:31;;;;;;;5.32;2.92;;;16.30;99.90;;;;;;5070582;28;20093;-74
2022/08/23 00:30:57;;;;;;;6.82;2.78;;;16.30;99.90;;;;;;5070698;28;20040;-75
2022/08/23 00:33:24;;;;;;;6.13;2.47;;;16.30;99.90;;;;;;5052691;28;20048;-75
2022/08/23 00:35:50;;;;;;;7.15;3.10;;;16.20;99.90;;;;;;5069761;28;20129;-73
2022/08/23 00:38:16;;;;;;;5.05;3.03;;;16.20;99.90;;;;;;5070092;28;20106;-75
2022/08/23 00:40:50;;;;;;;8.32;3.53;;;16.10;99.90;;;;;;5070571;28;20040;-75
2022/08/23 00:49:18;;;;;;;7.15;3.63;;;16.00;99.90;;;;;;5070458;28;20048;-75
2022/08/23 00:52:08;;;;;;;8.75;3.65;;;16.00;99.90;;;;;;5052589;28;20108;-75
2022/08/23 00:54:36;;;;;;;6.28;3.60;;;15.90;99.90;;;;;;5050424;28;20048;-75
2022/08/23 00:57:06;;;;;;;9.68;4.30;;;15.90;99.90;;;;;;5032597;28;20124;-75
2022/08/23 00:59:32;;;;;;;7.82;3.42;;;15.80;99.90;;;;;;5050508;28;20443;-74
2022/08/23 01:01:59;;;;;;;3.95;1.80;;;15.80;99.90;;;;;;5050266;28;20095;-74
2022/08/23 01:04:37;;;;;;;4.70;2.15;;;15.80;99.90;;;;;;5055481;28;20468;-73
2022/08/23 01:07:42;;;;;;;4.60;2.42;;;15.70;99.90;;;;;;5051734;28;20059;-74
2022/08/23 01:10:26;;;;;;;4.20;2.83;;;15.80;99.90;;;;;;5007724;28;20073;-74
2022/08/23 01:13:15;;;;;;;4.95;2.53;;;15.70;99.90;;;;;;4991585;28;20382;-75
2022/08/23 01:15:59;;;;;;;5.22;2.33;;;15.70;99.90;;;;;;5007382;28;20052;-74
2022/08/23 01:18:27;;;;;;;3.00;2.08;;;15.70;99.90;;;;;;5007586;28;20386;-74
2022/08/23 01:21:12;;;;;;;4.70;2.50;;;15.70;99.90;;;;;;4997816;28;20065;-75
2022/08/23 01:23:49;;;;;;;8.45;4.25;;;15.60;99.90;;;;;;4987531;28;20165;-75
2022/08/23 01:26:17;;;;;;;5.22;3.60;;;15.50;99.90;;;;;;4987808;28;20050;-75
2022/08/23 01:28:43;;;;;;;4.13;3.63;;;15.40;99.90;;;;;;4987851;28;20038;-73
2022/08/23 01:31:11;;;;;;;4.88;3.40;;;15.50;99.90;;;;;;4987918;28;20426;-74
2022/08/23 01:33:38;;;;;;;3.00;2.28;;;15.40;99.90;;;;;;4987976;28;20045;-75
2022/08/23 01:36:07;;;;;;;5.05;3.70;;;15.40;99.90;;;;;;4987966;28;20110;-75
2022/08/23 01:38:33;;;;;;;5.10;3.38;;;15.40;99.90;;;;;;4987593;28;20054;-75
2022/08/23 01:40:59;;;;;;;4.63;2.70;;;15.30;99.90;;;;;;4987646;28;20449;-75
2022/08/23 01:43:25;;;;;;;3.03;2.30;;;15.40;99.90;;;;;;5000267;28;20115;-75
2022/08/23 01:45:51;;;;;;;2.85;1.90;;;15.50;99.90;;;;;;5031700;28;20106;-74
2022/08/23 01:48:18;;;;;;;3.88;2.47;;;15.30;99.90;;;;;;5049640;28;20106;-75
2022/08/23 01:50:45;;;;;;;5.30;2.22;;;15.30;99.90;;;;;;5057534;28;20397;-75
2022/08/23 01:53:11;;;;;;;4.78;2.97;;;15.20;99.90;;;;;;5050724;28;20048;-73
2022/08/23 01:55:39;;;;;;;6.65;3.38;;;15.30;99.90;;;;;;5069288;28;20498;-74
2022/08/23 01:58:05;;;;;;;7.18;3.13;;;15.20;99.90;;;;;;5067778;28;20501;-74
2022/08/23 02:00:35;;;;;;;5.85;2.67;;;15.30;99.90;;;;;;5068836;28;20375;-73
2022/08/23 02:03:01;;;;;;;5.10;2.83;;;15.10;99.90;;;;;;5069586;28;20055;-70
2022/08/23 02:05:27;;;;;;;7.93;4.82;;;15.20;99.90;;;;;;5068675;28;20041;-71
2022/08/23 02:07:53;;;;;;;8.70;5.43;;;15.00;99.90;;;;;;5032212;28;20513;-72
2022/08/23 02:10:19;;;;;;;99.50;6.68;;;15.10;99.90;;;;;;5056251;28;20379;-72
2022/08/23 02:12:45;;;;;;;2.88;2.42;;;15.00;99.90;;;;;;5079198;28;20090;-72
2022/08/23 02:15:12;;;;;;;3.28;2.30;;;14.90;99.90;;;;;;5078995;28;20042;-71
2022/08/23 02:17:37;;;;;;;3.05;1.80;;;14.90;99.90;;;;;;5090142;28;20040;-72
2022/08/23 02:20:04;;;;;;;2.95;1.63;;;14.90;99.90;;;;;;5073663;28;20448;-72
2022/08/23 02:22:31;;;;;;;1.90;1.13;;;14.90;99.90;;;;;;5069276;28;20040;-73
2022/08/23 02:24:57;;;;;;;1.67;1.10;;;14.90;99.90;;;;;;5068905;28;20566;-75
2022/08/23 02:27:22;;;;;;;1.33;0.70;;;15.00;99.90;;;;;;5069758;28;20151;-73
2022/08/23 02:29:49;;;;;;;3.50;1.60;;;14.90;99.90;;;;;;5073098;28;20067;-72
2022/08/23 02:32:16;;;;;;;5.50;1.10;;;14.90;99.90;;;;;;5073250;28;20259;-74
2022/08/23 02:34:44;;;;;;;3.85;2.47;;;14.90;99.90;;;;;;5073114;28;20061;-74
2022/08/23 02:37:12;;;;;;;4.38;1.98;;;14.80;99.90;;;;;;5058180;28;20041;-73
2022/08/23 02:39:38;;;;;;;3.55;2.40;;;14.80;99.90;;;;;;5052966;28;20051;-74
2022/08/23 02:42:04;;;;;;;3.38;2.47;;;14.70;99.90;;;;;;5052388;28;20090;-72
2022/08/23 02:44:33;;;;;;;3.05;2.15;;;14.70;99.90;;;;;;5066982;28;20128;-72
2022/08/23 02:46:59;;;;;;;3.03;2.33;;;14.70;99.90;;;;;;5072451;28;20050;-72
2022/08/23 02:49:25;;;;;;;4.07;2.10;;;14.60;99.90;;;;;;5072741;28;20472;-72
2022/08/23 02:51:52;;;;;;;6.57;2.28;;;14.70;99.90;;;;;;5054997;28;20083;-73
2022/08/23 02:54:17;;;;;;;4.90;2.20;;;14.70;99.90;;;;;;5034944;28;20056;-73
2022/08/23 02:56:43;;;;;;;5.18;2.13;;;14.70;99.90;;;;;;5034642;28;20053;-73
2022/08/23 02:59:08;;;;;;;5.43;2.20;;;14.60;99.90;;;;;;5052909;28;20688;-74
2022/08/23 03:01:37;;;;;;;3.75;1.90;;;14.60;99.90;;;;;;5071931;28;20048;-74
2022/08/23 03:04:05;;;;;;;5.70;3.25;;;14.70;99.90;;;;;;5092821;28;20052;-73
2022/08/23 03:06:31;;;;;;;10.07;3.60;;;14.60;99.90;;;;;;5083193;28;20040;-74
2022/08/23 03:08:57;;;;;;;7.03;3.53;;;14.50;99.90;;;;;;5075868;28;20396;-73
2022/08/23 03:11:24;;;;;;;5.28;3.03;;;14.40;99.90;;;;;;5052660;28;20094;-75
2022/08/23 03:13:51;;;;;;;4.88;2.80;;;14.50;99.90;;;;;;5061873;28;20036;-73
2022/08/23 03:16:17;;;;;;;6.35;3.35;;;14.40;99.90;;;;;;5072774;28;20089;-75
2022/08/23 03:18:44;;;;;;;3.88;2.80;;;14.40;99.90;;;;;;5088106;28;20044;-74
2022/08/23 03:21:10;;;;;;;4.25;2.63;;;14.40;99.90;;;;;;5072797;28;20392;-72
2022/08/23 03:23:38;;;;;;;6.32;2.80;;;14.40;99.90;;;;;;5072557;28;20048;-74
2022/08/23 03:26:05;;;;;;;6.45;2.63;;;14.40;99.90;;;;;;5072291;28;20403;-74
2022/08/23 03:28:33;;;;;;;7.18;3.03;;;14.40;99.90;;;;;;5072014;28;20048;-73
2022/08/23 03:30:59;;;;;;;5.63;3.55;;;14.40;99.90;;;;;;5075239;28;20374;-74
2022/08/23 03:33:25;;;;;;;8.57;2.85;;;14.30;99.90;;;;;;5092401;28;20127;-73
2022/08/23 03:35:51;;;;;;;7.90;3.67;;;14.30;99.90;;;;;;5083858;28;20044;-73
2022/08/23 03:38:18;;;;;;;5.72;3.30;;;14.40;99.90;;;;;;5051577;28;20049;-73
2022/08/23 03:40:44;;;;;;;7.03;3.75;;;14.30;99.90;;;;;;5051662;28;20162;-74
2022/08/23 03:43:10;;;;;;;7.78;3.60;;;14.40;99.90;;;;;;5055195;28;20626;-73
2022/08/23 03:45:36;;;;;;;6.57;3.90;;;14.30;99.90;;;;;;5071548;28;20044;-73
2022/08/23 03:48:02;;;;;;;8.55;3.83;;;14.20;99.90;;;;;;5071661;28;20486;-73
2022/08/23 03:50:28;;;;;;;5.50;3.47;;;14.20;99.90;;;;;;5069114;28;20087;-74
2022/08/23 03:52:53;;;;;;;5.07;3.78;;;14.10;99.90;;;;;;5051660;28;20193;-74
2022/08/23 03:55:19;;;;;;;7.65;3.67;;;14.10;99.90;;;;;;5051549;28;20499;-74
2022/08/23 03:57:45;;;;;;;6.20;3.50;;;14.10;99.90;;;;;;5051222;28;20049;-74
2022/08/23 04:00:12;;;;;;;6.60;3.75;;;14.20;99.90;;;;;;5033338;28;20084;-74
2022/08/23 04:02:38;;;;;;;7.18;3.75;;;14.10;99.90;;;;;;5052409;28;20058;-74
2022/08/23 04:05:07;;;;;;;8.07;3.88;;;14.10;99.90;;;;;;5033417;28;20056;-73
2022/08/23 04:07:32;;;;;;;4.55;3.15;;;14.00;99.90;;;;;;5044432;28;20064;-74
2022/08/23 04:09:58;;;;;;;7.43;3.53;;;14.10;99.90;;;;;;5051847;28;20056;-74
2022/08/23 04:12:24;;;;;;;5.93;3.47;;;14.20;99.90;;;;;;5051070;28;20055;-73
2022/08/23 04:14:49;;;;;;;9.00;3.63;;;14.10;99.90;;;;;;5050591;28;20043;-73
2022/08/23 04:17:16;;;;;;;9.45;3.83;;;14.10;99.90;;;;;;5051967;28;20107;-73
2022/08/23 04:19:42;;;;;;;7.35;3.65;;;14.10;99.90;;;;;;5051000;28;20041;-74
2022/08/23 04:22:13;;;;;;;8.25;3.72;;;14.10;99.90;;;;;;5051140;28;20407;-74
2022/08/23 04:24:40;;;;;;;4.10;3.20;;;14.10;99.90;;;;;;5033121;28;20403;-73
2022/08/23 04:27:06;;;;;;;6.43;2.95;;;14.00;99.90;;;;;;5060686;28;20089;-75
2022/08/23 04:29:32;;;;;;;9.25;4.00;;;14.00;99.90;;;;;;5062411;28;20458;-74
2022/08/23 04:31:58;;;;;;;5.97;3.58;;;14.00;99.90;;;;;;5050706;28;20045;-73
2022/08/23 04:34:23;;;;;;;5.70;3.45;;;14.00;99.90;;;;;;5033158;28;20424;-72
2022/08/23 04:36:49;;;;;;;7.38;3.45;;;14.00;99.90;;;;;;5050969;28;20116;-73
2022/08/23 04:39:15;;;;;;;9.10;4.00;;;14.00;99.90;;;;;;5060777;28;20048;-72
2022/08/23 04:44:25;;;;;;;8.25;4.10;;;14.00;99.90;;;;;;5070713;28;20048;-73
2022/08/23 04:46:51;;;;;;;11.55;4.50;;;14.00;99.90;;;;;;5070391;28;20041;-72
2022/08/23 04:49:18;;;;;;;7.50;4.53;;;14.00;99.90;;;;;;5070561;28;20391;-73
2022/08/23 04:51:44;;;;;;;6.57;4.18;;;14.00;99.90;;;;;;5051767;28;20048;-72
2022/08/23 04:54:10;;;;;;;8.23;3.92;;;14.00;99.90;;;;;;5068671;28;20558;-72
2022/08/23 04:56:37;;;;;;;5.03;3.30;;;14.00;99.90;;;;;;5070161;28;20045;-72
2022/08/23 04:59:03;;;;;;;6.50;4.47;;;14.00;99.90;;;;;;5070099;28;20044;-73
2022/08/23 05:01:29;;;;;;;10.75;7.65;;;14.00;99.90;;;;;;5070103;28;20131;-73
2022/08/23 05:03:55;;;;;;;15.48;8.88;;;14.10;99.90;;;;;;5067764;28;20135;-73
2022/08/23 05:06:22;;;;;;;19.00;12.07;;;14.20;99.90;;;;;;5074936;28;20037;-72
2022/08/23 05:08:48;;;;;;;13.75;10.68;;;14.40;99.90;;;;;;5069769;28;20047;-71
2022/08/23 05:11:14;;;;;;;17.48;10.80;;;14.30;99.90;;;;;;5051977;28;20399;-73
2022/08/23 05:13:40;;;;;;;20.98;14.38;;;14.40;99.90;;;;;;5033953;28;20119;-72
2022/08/23 05:16:06;;;;;;;17.52;12.32;;;14.50;99.90;;;;;;5033028;28;20056;-71
2022/08/23 05:18:32;;;;;;;19.15;13.35;;;14.60;99.90;;;;;;5049685;28;20066;-72
2022/08/23 05:20:59;;;;;;;20.08;14.85;;;14.70;99.90;;;;;;5050016;28;20051;-73
2022/08/23 05:23:25;;;;;;;19.92;13.23;;;14.80;99.90;;;;;;5049669;28;20471;-72
2022/08/23 05:25:53;;;;;;;19.48;14.10;;;14.90;99.90;;;;;;5049836;28;20044;-71
2022/08/23 05:28:24;;;;;;;20.25;13.25;;;15.00;99.90;;;;;;5050002;28;20041;-71
2022/08/23 05:31:05;;;;;;;18.45;12.75;;;15.00;99.90;;;;;;5031745;28;20048;-71
2022/08/23 05:33:33;;;;;;;16.42;11.85;;;15.10;99.90;;;;;;5049466;28;20115;-72
2022/08/23 05:36:00;;;;;;;15.63;12.93;;;15.10;99.90;;;;;;5031629;28;20057;-72
2022/08/23 05:38:27;;;;;;;25.52;17.73;;;15.30;99.90;;;;;;5049372;28;20055;-73
2022/08/23 05:41:00;;;;;;;19.75;14.63;;;15.30;99.90;;;;;;5049265;28;20160;-71
2022/08/23 05:43:27;;;;;;;25.63;16.20;;;15.40;99.90;;;;;;5069398;28;20091;-72
2022/08/23 05:46:05;;;;;;;23.15;16.67;;;15.50;99.90;;;;;;5069741;28;20051;-73
2022/08/23 05:48:32;;;;;;;24.83;17.23;;;15.70;99.90;;;;;;5055040;28;20073;-71
2022/08/23 05:51:26;;;;;;;22.08;14.88;;;15.80;99.90;;;;;;5048917;28;20092;-73
2022/08/23 05:53:55;;;;;;;20.50;15.80;;;15.80;99.90;;;;;;5049773;28;20045;-73
2022/08/23 05:56:30;;;;;;;22.33;14.52;;;15.90;99.90;;;;;;5031883;28;20067;-72
2022/08/23 05:59:01;;;;;;;18.05;13.80;;;16.00;99.90;;;;;;5049496;28;20049;-73
2022/08/23 06:01:28;;;;;;;20.35;14.32;;;16.00;99.90;;;;;;5050150;28;20036;-74
2022/08/23 06:03:54;;;;;;;19.50;15.15;;;16.10;99.90;;;;;;5053385;28;20064;-73
2022/08/23 06:06:20;;;;;;;17.23;12.85;;;16.20;99.90;;;;;;5058867;28;20394;-74
2022/08/23 06:08:47;;;;;;;17.52;13.73;;;16.20;99.90;;;;;;5055448;28;20052;-74
2022/08/23 06:11:19;;;;;;;20.70;15.25;;;16.30;99.90;;;;;;5037163;28;20116;-77
2022/08/23 06:13:48;;;;;;;22.98;14.38;;;16.40;99.90;;;;;;5053477;28;20404;-74
2022/08/23 06:16:17;;;;;;;16.92;13.07;;;16.50;99.90;;;;;;5053465;28;20063;-74
2022/08/23 06:18:44;;;;;;;16.70;13.07;;;16.60;99.90;;;;;;5053612;28;20045;-74
2022/08/23 06:21:11;;;;;;;18.45;13.18;;;16.60;99.90;;;;;;5054647;28;20490;-73
2022/08/23 06:23:37;;;;;;;14.38;11.52;;;16.70;99.90;;;;;;5073392;28;20097;-73
2022/08/23 06:26:10;;;;;;;13.52;11.23;;;16.80;99.90;;;;;;5073327;28;20040;-72
2022/08/23 06:28:36;;;;;;;13.73;11.90;;;16.90;99.90;;;;;;5040295;28;20132;-72
2022/08/23 06:31:02;;;;;;;15.18;11.32;;;17.00;99.90;;;;;;5052992;28;20541;-74
2022/08/23 06:33:29;;;;;;;14.07;11.80;;;17.00;99.90;;;;;;5071770;28;20049;-74
2022/08/23 06:36:06;;;;;;;15.13;11.50;;;17.20;99.90;;;;;;5072644;28;20105;-73
2022/08/23 06:38:33;;;;;;;14.57;11.93;;;17.20;99.90;;;;;;5072940;28;20456;-73
2022/08/23 06:41:10;;;;;;;15.30;11.10;;;17.30;99.90;;;;;;5072471;28;20045;-73
2022/08/23 06:43:38;;;;;;;13.73;11.27;;;17.40;99.90;;;;;;5072568;28;20049;-74
2022/08/23 06:46:22;;;;;;;16.27;11.50;;;17.50;99.90;;;;;;5054696;28;20056;-72
2022/08/23 06:48:49;;;;;;;15.85;10.82;;;17.60;99.90;;;;;;5057544;28;20122;-74
2022/08/23 06:51:24;;;;;;;16.15;10.65;;;17.60;99.90;;;;;;5052513;28;20503;-73
2022/08/23 06:53:58;;;;;;;15.70;10.35;;;17.80;99.90;;;;;;5052166;28;20495;-73
2022/08/23 06:56:25;;;;;;;15.45;10.20;;;17.90;99.90;;;;;;5052804;28;20043;-75
2022/08/23 06:58:51;;;;;;;13.07;9.63;;;17.90;99.90;;;;;;5053747;28;20369;-74
2022/08/23 07:01:46;;;;;;;13.95;8.90;;;18.00;99.90;;;;;;5069732;28;20039;-73
2022/08/23 07:04:14;;;;;;;14.80;9.93;;;18.10;99.90;;;;;;5093082;28;20486;-72
2022/08/23 07:06:40;;;;;;;14.38;10.05;;;18.20;99.90;;;;;;5080551;28;20080;-73
2022/08/23 07:09:06;;;;;;;11.57;9.48;;;18.30;99.90;;;;;;5063988;28;20074;-73
2022/08/23 07:11:32;;;;;;;15.52;9.95;;;18.40;99.90;;;;;;5090616;28;20121;-72
2022/08/23 07:14:00;;;;;;;11.90;9.00;;;18.50;99.90;;;;;;5072836;28;20101;-73
2022/08/23 07:16:33;;;;;;;13.95;10.18;;;18.60;99.90;;;;;;5092360;28;20494;-75
2022/08/23 07:18:59;;;;;;;11.77;9.68;;;18.60;99.90;;;;;;5079570;28;20704;-73
2022/08/23 07:21:24;;;;;;;13.90;9.65;;;18.80;99.90;;;;;;5072006;28;20509;-74
2022/08/23 07:23:54;;;;;;;11.23;9.63;;;18.90;99.90;;;;;;5071840;28;20119;-74
2022/08/23 07:26:21;;;;;;;12.82;8.25;;;19.00;99.90;;;;;;5072041;28;20056;-75
2022/08/23 07:28:47;;;;;;;10.15;7.18;;;19.10;99.90;;;;;;5072210;28;20072;-74
2022/08/23 07:31:15;;;;;;;14.68;7.35;;;19.20;99.90;;;;;;5071433;28;20048;-74
2022/08/23 07:33:42;;;;;;;14.07;7.75;;;19.40;99.90;;;;;;5070489;28;20053;-73
2022/08/23 07:36:12;;;;;;;17.13;7.00;;;19.50;99.90;;;;;;5072303;28;20041;-75
2022/08/23 07:38:37;;;;;;;13.90;7.40;;;19.70;99.90;;;;;;5067774;28;20052;-72
2022/08/23 07:41:03;;;;;;;12.93;6.47;;;19.80;99.90;;;;;;5083642;28;20395;-74
2022/08/23 07:43:32;;;;;;;12.48;6.47;;;19.90;99.90;;;;;;5091981;28;20060;-73
2022/08/23 07:45:58;;;;;;;15.10;6.13;;;20.00;99.90;;;;;;5072224;28;20048;-75
2022/08/23 07:48:24;;;;;;;17.77;5.30;;;20.20;99.90;;;;;;5071683;28;20095;-73
2022/08/23 07:50:51;;;;;;;9.15;4.95;;;20.30;99.90;;;;;;5070463;28;20562;-79
2022/08/23 07:53:17;;;;;;;7.60;5.15;;;20.50;99.90;;;;;;5057802;28;20395;-74
2022/08/23 07:55:44;;;;;;;7.45;4.80;;;20.60;99.90;;;;;;5083039;28;20082;-73
2022/08/23 07:58:09;;;;;;;6.32;4.65;;;20.90;99.90;;;;;;5091999;28;20467;-74
2022/08/23 08:00:35;;;;;;;7.85;4.47;;;21.00;99.90;;;;;;5074881;28;20855;-74
2022/08/23 08:03:01;;;;;;;8.77;4.63;;;21.20;99.90;;;;;;5044155;28;20048;-75
2022/08/23 08:05:26;;;;;;;11.00;4.78;;;21.40;99.90;;;;;;5083705;28;20051;-74
2022/08/23 08:07:52;;;;;;;8.38;4.25;;;21.70;99.90;;;;;;5088831;28;20493;-73
2022/08/23 08:10:18;;;;;;;6.20;3.80;;;21.90;99.90;;;;;;5053026;28;20080;-75
2022/08/23 08:12:44;;;;;;;10.23;4.72;;;22.20;99.90;;;;;;5059730;28;20102;-76
2022/08/23 08:15:10;;;;;;;7.28;3.50;;;22.50;99.90;;;;;;5064310;28;20056;-74
2022/08/23 08:17:35;;;;;;;11.35;3.03;;;22.90;99.90;;;;;;5070776;28;20384;-74
2022/08/23 08:20:02;;;;;;;9.23;3.40;;;23.20;99.90;;;;;;5068882;28;21567;-78
2022/08/23 08:22:27;;;;;;;9.35;3.35;;;23.50;99.90;;;;;;5071635;28;20101;-75
2022/08/23 08:24:53;;;;;;;6.78;2.83;;;23.80;99.90;;;;;;5065219;28;20045;-77
2022/08/23 08:27:18;;;;;;;8.32;2.88;;;24.10;99.90;;;;;;5032880;28;20049;-76
2022/08/23 08:29:44;;;;;;;10.35;2.60;;;24.20;99.90;;;;;;5051011;28;20052;-75
2022/08/23 08:32:10;;;;;;;8.85;2.80;;;24.30;99.90;;;;;;5051069;28;20625;-79
2022/08/23 08:34:37;;;;;;;5.90;2.53;;;24.60;99.90;;;;;;5051798;28;20052;-74
2022/08/23 08:37:03;;;;;;;8.73;2.47;;;24.80;99.90;;;;;;5050591;28;20067;-76
2022/08/23 08:39:31;;;;;;;6.32;2.53;;;24.90;99.90;;;;;;5050759;28;20437;-78
2022/08/23 08:42:24;;;;;;;9.95;2.60;;;25.20;99.90;;;;;;5050116;28;20074;-74
2022/08/23 08:44:59;;;;;;;9.68;2.88;;;25.60;99.90;;;;;;5051561;28;20052;-74
2022/08/23 08:47:42;;;;;;;8.18;2.67;;;25.60;99.90;;;;;;5050366;28;20473;-74
2022/08/23 08:50:16;;;;;;;8.60;2.70;;;25.90;99.90;;;;;;5050429;28;20545;-75
2022/08/23 08:53:04;;;;;;;7.20;2.38;;;25.90;99.90;;;;;;5056236;28;20045;-78
2022/08/23 08:55:35;;;;;;;9.50;2.42;;;26.20;99.90;;;;;;5032433;28;20048;-78
2022/08/23 08:58:03;;;;;;;7.55;2.83;;;26.50;99.90;;;;;;5067422;28;20425;-75
2022/08/23 09:00:36;;;;;;;6.38;2.13;;;26.50;99.90;;;;;;5090754;28;20040;-78
2022/08/23 09:03:13;;;;;;;5.45;2.00;;;26.70;99.90;;;;;;5090591;28;20044;-75
2022/08/23 09:05:48;;;;;;;8.00;2.67;;;27.00;99.90;;;;;;5090527;28;20433;-77
2022/08/23 09:08:37;;;;;;;10.70;2.30;;;27.20;99.90;;;;;;5072480;28;20048;-77
2022/08/23 09:11:15;;;;;;;8.02;2.38;;;27.20;99.90;;;;;;5090708;28;20074;-77
2022/08/23 09:14:05;;;;;;;6.82;2.33;;;27.10;99.90;;;;;;5090331;28;20124;-77
2022/08/23 09:16:50;;;;;;;4.57;2.10;;;27.00;99.90;;;;;;5090416;28;20074;-77
2022/08/23 09:19:17;;;;;;;6.60;2.17;;;26.90;99.80;;;;;;5090517;28;20051;-75
2022/08/23 09:21:54;;;;;;;5.30;2.33;;;26.80;99.90;;;;;;5090520;28;20079;-77
2022/08/23 09:24:20;;;;;;;4.93;2.15;;;26.80;99.90;;;;;;5090109;28;20113;-78
2022/08/23 09:26:45;;;;;;;5.88;2.10;;;27.00;99.90;;;;;;5090171;28;20122;-78
2022/08/23 09:29:25;;;;;;;5.35;2.20;;;27.10;99.90;;;;;;5071798;28;20067;-76
2022/08/23 09:32:02;;;;;;;6.35;2.10;;;27.20;99.90;;;;;;5090340;28;20063;-77
2022/08/23 09:34:35;;;;;;;6.03;2.15;;;27.20;99.90;;;;;;5090311;28;20047;-78
2022/08/23 09:37:21;;;;;;;5.22;2.30;;;27.30;99.90;;;;;;5089743;28;20056;-78
2022/08/23 09:40:14;;;;;;;6.63;2.00;;;27.60;99.90;;;;;;5090153;28;20040;-76
2022/08/23 09:42:40;;;;;;;6.47;2.33;;;27.80;99.90;;;;;;5070495;28;20052;-77
2022/08/23 09:45:28;;;;;;;5.70;2.30;;;28.00;99.90;;;;;;5050669;28;20048;-79
2022/08/23 09:47:53;;;;;;;6.75;2.75;;;28.20;99.40;;;;;;5072201;28;20046;-79
2022/08/23 09:50:38;;;;;;;8.93;2.40;;;28.30;99.90;;;;;;5064394;28;20136;-73
2022/08/23 09:53:14;;;;;;;9.25;2.30;;;28.40;98.50;;;;;;5050151;28;20464;-74
2022/08/23 09:55:44;;;;;;;5.78;2.28;;;28.60;99.10;;;;;;5050031;28;20087;-78
2022/08/23 09:58:40;;;;;;;7.22;2.50;;;28.70;99.10;;;;;;5050047;28;20118;-76
2022/08/23 10:01:27;;;;;;;7.90;2.10;;;29.00;97.60;;;;;;5065421;28;20095;-77
2022/08/23 10:04:15;;;;;;;7.18;2.30;;;29.20;97.00;;;;;;5032049;28;20044;-79
2022/08/23 10:06:44;;;;;;;5.85;2.20;;;29.40;96.50;;;;;;5069354;28;20491;-77
2022/08/23 10:09:28;;;;;;;6.72;2.00;;;29.60;97.90;;;;;;5089767;28;20089;-76
2022/08/23 10:11:56;;;;;;;6.72;2.03;;;29.70;96.20;;;;;;5089946;28;20062;-81
2022/08/23 10:14:24;;;;;;;5.75;2.20;;;29.80;96.60;;;;;;5068817;28;20174;-74
2022/08/23 10:17:20;;;;;;;6.88;2.13;;;29.90;96.10;;;;;;5072155;28;20130;-78
2022/08/23 10:19:52;;;;;;;5.88;2.10;;;30.10;95.40;;;;;;5052151;28;20171;-79
2022/08/23 10:22:26;;;;;;;5.20;1.80;;;30.30;96.00;;;;;;5071495;28;20490;-74
2022/08/23 10:25:10;;;;;;;6.03;2.00;;;30.20;94.60;;;;;;5060873;28;20067;-76
2022/08/23 10:30:46;;;;;;;7.85;2.10;;;30.20;93.80;;;;;;5049267;28;20007;-76
2022/08/23 10:33:18;;;;;;;7.25;1.88;;;30.40;94.60;;;;;;5048857;28;20049;-77
2022/08/23 10:35:58;;;;;;;9.32;1.80;;;30.50;94.60;;;;;;5032632;28;20044;-81
2022/08/23 10:38:48;;;;;;;5.03;1.50;;;30.40;94.90;;;;;;5049276;28;20056;-73
2022/08/23 10:41:32;;;;;;;6.65;1.63;;;30.50;93.70;;;;;;5050242;28;20049;-77
2022/08/23 10:44:23;;;;;;;8.30;1.83;;;30.50;93.60;;;;;;5049227;28;20045;-79
2022/08/23 10:47:21;;;;;;;6.20;1.55;;;30.70;93.20;;;;;;5031295;28;20120;-78
2022/08/23 10:49:51;;;;;;;7.20;1.63;;;30.90;92.90;;;;;;5052245;28;20172;-81
2022/08/23 10:52:31;;;;;;;6.85;1.88;;;31.00;93.20;;;;;;5054150;28;20059;-77
2022/08/23 10:55:16;;;;;;;6.25;1.67;;;31.00;92.90;;;;;;5052795;28;20122;-81
2022/08/23 10:57:44;;;;;;;6.57;1.73;;;31.00;92.40;;;;;;5052551;28;20045;-82
2022/08/23 11:00:16;;;;;;;10.02;1.92;;;31.00;92.50;;;;;;5057757;28;20054;-85
2022/08/23 11:02:54;;;;;;;6.45;2.10;;;31.20;91.80;;;;;;5069600;28;20044;-74
2022/08/23 11:05:20;;;;;;;8.82;2.03;;;31.30;91.60;;;;;;5059117;28;20043;-75
2022/08/23 11:08:29;;;;;;;8.10;1.95;;;31.40;91.10;;;;;;5052563;28;20052;-80
2022/08/23 11:10:55;;;;;;;4.55;1.70;;;31.30;91.00;;;;;;5052262;28;20573;-76
2022/08/23 11:13:24;;;;;;;6.38;1.90;;;31.40;91.60;;;;;;5035839;28;20076;-76
2022/08/23 11:16:12;;;;;;;8.68;2.30;;;31.60;91.60;;;;;;5052356;28;20041;-79
2022/08/23 11:18:44;;;;;;;7.35;1.70;;;31.50;90.90;;;;;;5051936;28;20044;-77
2022/08/23 11:21:49;;;;;;;4.47;1.63;;;31.50;90.60;;;;;;5052414;28;20151;-79
2022/08/23 11:24:15;;;;;;;5.25;1.80;;;31.60;88.20;;;;;;5053276;28;20053;-80
2022/08/23 11:26:43;;;;;;;4.10;1.50;;;31.60;90.10;;;;;;5052097;28;20064;-75
2022/08/23 11:29:21;;;;;;;5.07;1.60;;;31.50;88.20;;;;;;5051934;28;20423;-79
2022/08/23 11:31:55;;;;;;;7.57;1.70;;;31.60;87.60;;;;;;5052135;28;20053;-79
2022/08/23 11:34:41;;;;;;;6.22;1.92;;;31.50;86.20;;;;;;5034987;28;20381;-76
2022/08/23 11:37:18;;;;;;;5.03;1.73;;;31.40;87.20;;;;;;5034117;28;20127;-85
2022/08/23 11:39:56;;;;;;;4.80;1.60;;;31.40;88.10;;;;;;5052115;28;20045;-79
2022/08/23 11:42:25;;;;;;;9.85;2.03;;;31.50;87.50;;;;;;5051968;28;20167;-78
2022/08/23 11:44:52;;;;;;;7.03;1.83;;;31.60;87.50;;;;;;5053102;28;20127;-79
2022/08/23 11:47:38;;;;;;;6.50;1.67;;;31.60;88.50;;;;;;5017231;28;20955;-81
2022/08/23 11:50:10;;;;;;;8.48;2.42;;;31.70;86.30;;;;;;5051529;28;20111;-78
2022/08/23 11:53:14;;;;;;;7.25;1.48;;;31.80;86.20;;;;;;5051778;28;20037;-78
2022/08/23 11:56:20;;;;;;;4.68;1.38;;;31.90;85.80;;;;;;5039511;28;20079;-79
2022/08/23 11:59:07;;;;;;;4.97;1.58;;;31.90;84.00;;;;;;5051619;28;20045;-77
2022/08/23 12:01:36;;;;;;;5.50;1.42;;;32.10;84.20;;;;;;5033731;28;20053;-83
2022/08/23 12:04:12;;;;;;;5.63;1.80;;;32.10;84.40;;;;;;5051450;28;20048;-81
2022/08/23 12:06:48;;;;;;;5.63;1.50;;;32.00;83.00;;;;;;5070870;28;20486;-79
2022/08/23 12:09:22;;;;;;;6.60;1.63;;;32.10;82.40;;;;;;5071283;28;20063;-80
2022/08/23 12:11:54;;;;;;;8.23;1.73;;;32.20;82.30;;;;;;5071301;28;20098;-80
2022/08/23 12:14:32;;;;;;;6.75;1.48;;;32.30;82.40;;;;;;5071436;28;20079;-78
2022/08/23 12:17:11;;;;;;;4.10;1.42;;;32.50;82.30;;;;;;5069635;28;20126;-76
2022/08/23 12:19:45;;;;;;;5.22;1.60;;;32.70;82.90;;;;;;5071387;28;20068;-77
2022/08/23 12:22:13;;;;;;;6.72;1.90;;;32.80;81.90;;;;;;5070726;28;20052;-75
2022/08/23 12:24:52;;;;;;;8.35;1.58;;;32.90;82.40;;;;;;5052908;28;20805;-76
2022/08/23 12:27:32;;;;;;;5.40;1.70;;;32.80;80.20;;;;;;5069465;28;20051;-77
2022/08/23 12:30:09;;;;;;;6.43;1.70;;;32.80;81.20;;;;;;5069192;28;20037;-79
2022/08/23 12:33:06;;;;;;;7.40;1.60;;;32.80;80.70;;;;;;5071332;28;20480;-80
2022/08/23 12:35:54;;;;;;;9.55;1.80;;;32.90;79.70;;;;;;5070959;28;20059;-76
2022/08/23 12:39:14;;;;;;;4.15;1.50;;;32.80;79.40;;;;;;5068868;28;20044;-75
2022/08/23 12:42:14;;;;;;;4.78;1.52;;;32.70;78.00;;;;;;5071100;28;20098;-76
2022/08/23 12:44:41;;;;;;;5.35;1.48;;;32.70;78.70;;;;;;5070715;28;20056;-75
2022/08/23 12:47:25;;;;;;;7.53;2.00;;;32.50;79.80;;;;;;5068952;28;20049;-76
2022/08/23 12:49:57;;;;;;;11.27;1.95;;;32.50;78.30;;;;;;5032647;28;20511;-80
2022/08/23 12:52:28;;;;;;;6.43;2.25;;;32.50;77.70;;;;;;5050648;28;20107;-79
2022/08/23 12:54:56;;;;;;;4.85;1.42;;;32.00;76.60;;;;;;5050528;28;20053;-78
2022/08/23 12:57:35;;;;;;;5.80;1.92;;;32.00;77.70;;;;;;5051617;28;20063;-80
2022/08/23 13:00:13;;;;;;;5.38;1.42;;;32.00;78.00;;;;;;5032682;28;20132;-78
2022/08/23 13:02:46;;;;;;;5.75;1.90;;;32.10;76.80;;;;;;5016158;28;20057;-80
2022/08/23 13:05:32;;;;;;;4.50;1.58;;;32.00;77.20;;;;;;5050543;28;20136;-79
2022/08/23 13:08:02;;;;;;;3.67;1.50;;;31.90;76.60;;;;;;5065049;28;20087;-80
2022/08/23 13:10:29;;;;;;;5.40;1.88;;;31.90;76.80;;;;;;5081038;28;20040;-78
2022/08/23 13:12:54;;;;;;;5.07;1.80;;;31.80;77.70;;;;;;5049900;28;20104;-79
2022/08/23 13:15:47;;;;;;;4.75;1.70;;;31.70;78.30;;;;;;5050206;28;20056;-83
2022/08/23 13:18:44;;;;;;;5.93;1.67;;;31.60;77.20;;;;;;5050074;28;20653;-77